createdAt,value
2018-08-12T00:00:11.852Z,3.90
2018-08-12T00:02:37.852Z,3.10
2018-08-12T00:05:03.829Z,5.37
2018-08-12T00:07:30.568Z,4.37
2018-08-12T00:09:57.262Z,3.50
2018-08-12T00:12:23.971Z,3.60
2018-08-12T00:14:50.646Z,4.60
2018-08-12T00:17:16.582Z,5.70
2018-08-12T00:19:42.549Z,4.00
2018-08-12T00:22:08.473Z,4.17
2018-08-12T00:24:35.169Z,4.87
2018-08-12T00:27:01.131Z,4.73
2018-08-12T00:29:27.133Z,7.23
2018-08-12T00:31:53.091Z,3.93
2018-08-12T00:34:19.089Z,4.17
2018-08-12T00:36:45.847Z,4.27
2018-08-12T00:39:11.909Z,3.73
2018-08-12T00:41:37.844Z,4.80
2018-08-12T00:44:03.798Z,4.30
2018-08-12T00:46:30.539Z,5.50
2018-08-12T00:48:57.301Z,5.77
2018-08-12T00:51:23.308Z,5.10
2018-08-12T00:53:50.024Z,4.90
2018-08-12T00:56:16.019Z,4.80
2018-08-12T00:58:41.974Z,4.50
2018-08-12T01:01:07.944Z,5.27
2018-08-12T01:03:33.902Z,5.97
2018-08-12T01:05:59.881Z,4.20
2018-08-12T01:08:25.860Z,4.57
2018-08-12T01:10:51.822Z,4.53
2018-08-12T01:13:17.794Z,5.80
2018-08-12T01:15:43.784Z,3.63
2018-08-12T01:18:09.769Z,7.43
2018-08-12T01:20:35.724Z,3.97
2018-08-12T01:23:01.711Z,4.70
2018-08-12T01:25:28.454Z,7.47
2018-08-12T01:27:55.197Z,4.87
2018-08-12T01:30:21.895Z,6.70
2018-08-12T01:32:47.853Z,3.70
2018-08-12T01:35:14.628Z,4.10
2018-08-12T01:37:40.601Z,4.10
2018-08-12T01:40:06.614Z,3.80
2018-08-12T01:42:32.594Z,7.00
2018-08-12T01:44:58.566Z,4.00
2018-08-12T01:47:24.639Z,3.63
2018-08-12T01:49:51.421Z,4.20
2018-08-12T01:52:17.397Z,4.00
2018-08-12T01:54:44.103Z,3.97
2018-08-12T01:57:10.108Z,4.00
2018-08-12T01:59:36.072Z,3.70
2018-08-12T02:02:02.815Z,4.83
2018-08-12T02:04:28.780Z,3.97
2018-08-12T02:06:54.806Z,3.77
2018-08-12T02:09:20.792Z,4.60
2018-08-12T02:11:47.517Z,5.70
2018-08-12T02:14:14.267Z,3.47
2018-08-12T02:16:40.262Z,3.73
2018-08-12T02:19:06.270Z,4.50
2018-08-12T02:21:32.231Z,3.93
2018-08-12T02:23:58.949Z,3.70
2018-08-12T02:26:24.900Z,6.03
2018-08-12T02:28:51.599Z,4.83
2018-08-12T02:31:17.580Z,6.83
2018-08-12T02:33:43.566Z,6.63
2018-08-12T02:36:10.301Z,4.67
2018-08-12T02:38:36.297Z,4.33
2018-08-12T02:41:02.266Z,5.67
2018-08-12T02:43:28.969Z,4.83
2018-08-12T02:45:54.968Z,4.20
2018-08-12T02:48:20.966Z,4.93
2018-08-12T02:50:46.979Z,5.97
2018-08-12T02:53:13.690Z,4.80
2018-08-12T02:55:39.731Z,3.87
2018-08-12T02:58:05.701Z,4.47
2018-08-12T03:00:31.702Z,4.77
2018-08-12T03:02:57.666Z,6.67
2018-08-12T03:05:23.669Z,4.37
2018-08-12T03:07:49.637Z,9.23
2018-08-12T03:10:15.646Z,5.40
2018-08-12T03:12:41.623Z,5.23
2018-08-12T03:15:07.602Z,5.33
2018-08-12T03:17:33.549Z,4.93
2018-08-12T03:19:59.498Z,4.60
2018-08-12T03:22:25.538Z,4.97
2018-08-12T03:24:51.457Z,5.73
2018-08-12T03:27:17.423Z,4.70
2018-08-12T03:29:43.388Z,7.03
2018-08-12T03:32:09.359Z,5.00
2018-08-12T03:34:36.061Z,4.93
2018-08-12T03:37:02.021Z,5.30
2018-08-12T03:39:28.028Z,5.37
2018-08-12T03:41:54.000Z,5.50
2018-08-12T03:44:19.988Z,7.10
2018-08-12T03:46:45.954Z,6.83
2018-08-12T03:49:11.936Z,4.30
2018-08-12T03:51:37.920Z,6.97
2018-08-12T03:54:03.896Z,4.70
2018-08-12T03:56:29.885Z,5.60
2018-08-12T03:58:55.857Z,5.80
2018-08-12T04:01:22.585Z,5.03
2018-08-12T04:03:48.545Z,4.47
2018-08-12T04:06:14.546Z,5.17
2018-08-12T04:08:41.249Z,4.27
2018-08-12T04:11:07.235Z,4.47
2018-08-12T04:13:33.200Z,5.43
2018-08-12T04:15:59.213Z,6.53
2018-08-12T04:18:25.187Z,6.20
2018-08-12T04:20:51.182Z,4.63
2018-08-12T04:23:17.132Z,5.23
2018-08-12T04:25:43.115Z,7.00
2018-08-12T04:28:09.078Z,5.10
2018-08-12T04:30:35.783Z,4.53
2018-08-12T04:33:01.778Z,5.83
2018-08-12T04:35:27.747Z,5.97
2018-08-12T04:37:54.482Z,5.27
2018-08-12T04:40:20.464Z,5.90
2018-08-12T04:42:46.455Z,4.70
2018-08-12T04:45:12.423Z,6.67
2018-08-12T04:47:38.419Z,4.77
2018-08-12T04:50:04.399Z,5.13
2018-08-12T04:52:31.103Z,4.60
2018-08-12T04:54:57.122Z,4.20
2018-08-12T04:57:23.083Z,4.10
2018-08-12T04:59:49.045Z,7.20
2018-08-12T05:02:14.998Z,6.83
2018-08-12T05:04:40.996Z,6.50
2018-08-12T05:07:06.946Z,5.13
2018-08-12T05:09:32.945Z,4.67
2018-08-12T05:11:58.899Z,4.23
2018-08-12T05:14:24.896Z,5.47
2018-08-12T05:16:50.884Z,7.03
2018-08-12T05:19:17.579Z,4.93
2018-08-12T05:21:43.583Z,4.37
2018-08-12T05:24:09.566Z,5.20
2018-08-12T05:26:35.589Z,5.00
2018-08-12T05:29:01.559Z,4.70
2018-08-12T05:31:27.566Z,5.30
2018-08-12T05:33:53.533Z,5.03
2018-08-12T05:36:19.514Z,3.70
2018-08-12T05:38:45.510Z,4.17
2018-08-12T05:41:11.533Z,5.83
2018-08-12T05:43:37.536Z,5.40
2018-08-12T05:46:03.522Z,4.93
2018-08-12T05:48:29.470Z,4.27
2018-08-12T05:50:55.518Z,3.60
2018-08-12T05:53:21.504Z,3.90
2018-08-12T05:55:47.549Z,5.97
2018-08-12T05:58:14.283Z,5.40
2018-08-12T06:00:41.010Z,3.70
2018-08-12T06:03:07.011Z,4.13
2018-08-12T06:05:32.990Z,4.17
2018-08-12T06:07:59.718Z,4.50
2018-08-12T06:10:25.692Z,3.50
2018-08-12T06:12:52.406Z,4.70
2018-08-12T06:15:18.405Z,3.87
2018-08-12T06:17:44.609Z,4.40
2018-08-12T06:20:10.624Z,4.67
2018-08-12T06:22:36.590Z,3.37
2018-08-12T06:25:03.329Z,3.57
2018-08-12T06:27:30.037Z,4.93
2018-08-12T06:29:56.023Z,3.33
2018-08-12T06:32:21.989Z,5.70
2018-08-12T06:34:47.981Z,3.17
2018-08-12T06:37:13.948Z,4.13
2018-08-12T06:39:40.664Z,3.10
2018-08-12T06:42:06.647Z,3.43
2018-08-12T06:44:32.616Z,3.40
2018-08-12T06:46:58.626Z,3.83
2018-08-12T06:49:24.592Z,4.80
2018-08-12T06:51:51.319Z,3.47
2018-08-12T06:54:18.029Z,3.57
2018-08-12T06:56:44.083Z,3.43
2018-08-12T06:59:10.047Z,3.30
2018-08-12T07:01:36.035Z,3.43
2018-08-12T07:04:01.980Z,3.70
2018-08-12T07:06:27.960Z,4.93
2018-08-12T07:08:53.930Z,4.20
2018-08-12T07:11:19.922Z,3.50
2018-08-12T07:13:45.893Z,3.57
2018-08-12T07:16:11.875Z,2.90
2018-08-12T07:18:38.581Z,3.20
2018-08-12T07:21:04.575Z,3.53
2018-08-12T07:23:30.539Z,3.00
2018-08-12T07:25:56.530Z,5.63
2018-08-12T07:28:22.513Z,5.90
2018-08-12T07:30:49.211Z,3.10
2018-08-12T07:33:15.223Z,4.50
2018-08-12T07:35:41.178Z,3.77
2018-08-12T07:38:07.171Z,3.40
2018-08-12T07:40:33.160Z,3.43
2018-08-12T07:42:59.901Z,3.70
2018-08-12T07:45:25.883Z,3.17
2018-08-12T07:47:51.890Z,7.77
2018-08-12T07:50:17.845Z,5.13
2018-08-12T07:52:44.553Z,4.37
2018-08-12T07:55:10.562Z,2.77
2018-08-12T07:57:36.556Z,4.83
2018-08-12T08:00:02.549Z,3.27
2018-08-12T08:02:28.502Z,2.97
2018-08-12T08:04:54.469Z,3.10
2018-08-12T08:07:20.419Z,5.13
2018-08-12T08:09:47.154Z,3.50
2018-08-12T08:12:13.121Z,5.47
2018-08-12T08:14:39.075Z,4.07
2018-08-12T08:17:05.046Z,3.33
2018-08-12T08:19:31.736Z,5.63
2018-08-12T08:21:57.710Z,3.83
2018-08-12T08:24:23.662Z,3.03
2018-08-12T08:26:49.657Z,3.20
2018-08-12T08:29:16.348Z,5.80
2018-08-12T08:31:42.490Z,3.47
2018-08-12T08:34:08.342Z,4.73
2018-08-12T08:36:41.215Z,3.50
2018-08-12T08:39:07.933Z,3.87
2018-08-12T08:41:33.900Z,2.90
2018-08-12T08:43:59.960Z,5.03
2018-08-12T08:46:26.610Z,4.53
2018-08-12T08:48:52.589Z,4.87
2018-08-12T08:51:18.541Z,4.20
2018-08-12T08:53:44.505Z,3.97
2018-08-12T08:56:10.533Z,3.47
2018-08-12T08:58:36.491Z,6.10
2018-08-12T09:01:02.441Z,4.73
2018-08-12T09:03:28.404Z,3.23
2018-08-12T09:05:55.098Z,4.50
2018-08-12T09:08:21.120Z,3.60
2018-08-12T09:10:47.065Z,3.43
2018-08-12T09:13:13.024Z,4.07
2018-08-12T09:15:39.758Z,4.27
2018-08-12T09:18:05.716Z,3.07
2018-08-12T09:20:31.702Z,2.67
2018-08-12T09:22:58.395Z,3.53
2018-08-12T09:25:24.386Z,5.40
2018-08-12T09:27:50.345Z,5.13
2018-08-12T09:30:16.317Z,2.43
2018-08-12T09:32:43.047Z,3.23
2018-08-12T09:35:09.020Z,3.37
2018-08-12T09:37:35.022Z,3.77
2018-08-12T09:40:00.981Z,2.83
2018-08-12T09:42:27.738Z,3.97
2018-08-12T09:44:53.693Z,5.33
2018-08-12T09:47:19.658Z,2.50
2018-08-12T09:49:45.608Z,4.63
2018-08-12T09:52:12.332Z,3.43
2018-08-12T09:54:38.292Z,4.33
2018-08-12T09:57:05.016Z,3.80
2018-08-12T09:59:31.700Z,4.53
2018-08-12T10:01:57.711Z,4.00
2018-08-12T10:04:23.678Z,2.23
2018-08-12T10:06:49.674Z,2.43
2018-08-12T10:09:15.625Z,2.50
2018-08-12T10:11:41.564Z,3.87
2018-08-12T10:14:08.289Z,3.57
2018-08-12T10:16:34.242Z,2.90
2018-08-12T10:19:00.983Z,2.60
2018-08-12T10:21:27.708Z,2.53
2018-08-12T10:23:53.673Z,5.43
2018-08-12T10:26:19.614Z,3.00
2018-08-12T10:28:45.586Z,3.63
2018-08-12T10:31:12.286Z,5.57
2018-08-12T10:33:38.286Z,1.70
2018-08-12T10:36:04.224Z,2.93
2018-08-12T10:38:30.202Z,3.70
2018-08-12T10:40:56.204Z,3.63
2018-08-12T10:43:22.888Z,2.67
2018-08-12T10:45:48.899Z,4.87
2018-08-12T10:48:14.857Z,2.97
2018-08-12T10:50:40.841Z,4.53
2018-08-12T10:53:06.799Z,5.00
2018-08-12T10:55:32.787Z,2.53
2018-08-12T10:57:58.757Z,2.67
2018-08-12T11:00:24.736Z,3.97
2018-08-12T11:02:51.421Z,4.63
2018-08-12T11:05:17.381Z,3.60
2018-08-12T11:07:44.090Z,4.67
2018-08-12T11:10:10.064Z,2.73
2018-08-12T11:12:36.105Z,2.60
2018-08-12T11:15:02.766Z,4.57
2018-08-12T11:17:28.739Z,2.10
2018-08-12T11:19:55.435Z,2.60
2018-08-12T11:22:21.397Z,2.77
2018-08-12T11:24:48.119Z,2.70
2018-08-12T11:27:14.071Z,3.30
2018-08-12T11:29:40.050Z,2.17
2018-08-12T11:32:06.057Z,2.97
2018-08-12T11:34:32.053Z,2.83
2018-08-12T11:36:58.019Z,3.67
2018-08-12T11:39:24.001Z,2.40
2018-08-12T11:41:49.988Z,5.47
2018-08-12T11:44:16.728Z,3.00
2018-08-12T11:46:43.450Z,3.03
2018-08-12T11:49:09.449Z,2.80
2018-08-12T11:51:35.427Z,2.20
2018-08-12T11:54:02.138Z,1.87
2018-08-12T11:56:28.130Z,2.03
2018-08-12T11:58:54.070Z,2.20
2018-08-12T12:01:20.056Z,4.80
2018-08-12T12:03:46.044Z,1.60
2018-08-12T12:06:12.801Z,3.60
2018-08-12T12:08:38.796Z,1.67
2018-08-12T12:11:05.511Z,1.40
2018-08-12T12:13:31.459Z,1.93
2018-08-12T12:15:57.433Z,1.50
2018-08-12T12:18:23.372Z,1.67
2018-08-12T12:20:49.377Z,2.30
2018-08-12T12:23:15.384Z,1.97
2018-08-12T12:25:41.380Z,2.63
2018-08-12T12:28:08.096Z,1.23
2018-08-12T12:30:34.102Z,1.17
2018-08-12T12:33:00.106Z,1.17
2018-08-12T12:35:26.109Z,1.43
2018-08-12T12:37:52.065Z,1.77
2018-08-12T12:40:18.054Z,3.30
2018-08-12T12:42:44.818Z,2.03
2018-08-12T12:45:10.754Z,1.57
2018-08-12T12:47:36.726Z,1.83
2018-08-12T12:50:03.460Z,2.27
2018-08-12T12:52:29.412Z,1.60
2018-08-12T12:54:55.359Z,1.37
2018-08-12T12:57:21.299Z,1.87
2018-08-12T12:59:47.279Z,2.60
2018-08-12T13:02:13.224Z,1.30
2018-08-12T13:04:39.218Z,1.20
2018-08-12T13:07:05.918Z,1.33
2018-08-12T13:09:31.891Z,1.80
2018-08-12T13:11:57.846Z,1.40
2018-08-12T13:14:23.826Z,2.43
2018-08-12T13:16:50.529Z,2.47
2018-08-12T13:19:16.503Z,1.20
2018-08-12T13:21:42.505Z,1.40
2018-08-12T13:24:09.198Z,1.43
2018-08-12T13:26:35.183Z,1.20
2018-08-12T13:29:01.125Z,1.30
2018-08-12T13:31:27.091Z,2.37
2018-08-12T13:33:53.039Z,1.13
2018-08-12T13:36:19.755Z,1.13
2018-08-12T13:38:45.684Z,4.23
2018-08-12T13:41:12.393Z,1.47
2018-08-12T13:43:38.429Z,2.23
2018-08-12T13:46:04.340Z,1.97
2018-08-12T13:48:30.308Z,1.67
2018-08-12T13:50:56.998Z,1.70
2018-08-12T13:53:22.973Z,1.60
2018-08-12T13:55:49.660Z,1.40
2018-08-12T13:58:15.644Z,1.60
2018-08-12T14:00:41.600Z,1.47
2018-08-12T14:03:07.607Z,1.83
2018-08-12T14:05:33.552Z,1.93
2018-08-12T14:07:59.544Z,1.50
2018-08-12T14:10:25.503Z,1.30
2018-08-12T14:12:51.505Z,1.37
2018-08-12T14:15:17.507Z,1.50
2018-08-12T14:17:43.496Z,1.33
2018-08-12T14:20:09.467Z,1.90
2018-08-12T14:22:35.424Z,2.47
2018-08-12T14:25:01.443Z,2.10
2018-08-12T14:27:27.392Z,3.47
2018-08-12T14:29:54.137Z,2.07
2018-08-12T14:32:20.851Z,2.50
2018-08-12T14:34:46.795Z,4.30
2018-08-12T14:37:12.761Z,1.30
2018-08-12T14:39:38.712Z,1.40
2018-08-12T14:42:04.681Z,2.60
2018-08-12T14:44:30.645Z,1.53
2018-08-12T14:46:56.630Z,1.23
2018-08-12T14:49:22.581Z,1.20
2018-08-12T14:51:48.568Z,1.73
2018-08-12T14:54:15.262Z,1.40
2018-08-12T14:56:41.276Z,1.70
2018-08-12T14:59:07.228Z,1.27
2018-08-12T15:01:33.161Z,1.30
2018-08-12T15:03:59.885Z,1.60
2018-08-12T15:06:25.836Z,1.53
2018-08-12T15:08:51.833Z,1.10
2018-08-12T15:11:17.796Z,1.87
2018-08-12T15:13:43.792Z,1.23
2018-08-12T15:16:10.480Z,2.57
2018-08-12T15:18:36.490Z,1.17
2018-08-12T15:21:02.424Z,3.60
2018-08-12T15:23:28.388Z,2.77
2018-08-12T15:25:54.403Z,2.80
2018-08-12T15:28:20.364Z,4.57
2018-08-12T15:30:47.068Z,1.17
2018-08-12T15:33:13.022Z,1.30
2018-08-12T15:35:39.004Z,1.20
2018-08-12T15:38:04.959Z,3.07
2018-08-12T15:40:31.693Z,1.77
2018-08-12T15:42:58.381Z,1.20
2018-08-12T15:45:24.334Z,1.13
2018-08-12T15:47:50.305Z,4.33
2018-08-12T15:50:16.248Z,1.40
2018-08-12T15:52:42.242Z,0.80
2018-08-12T15:55:08.958Z,1.10
2018-08-12T15:57:35.855Z,0.90
2018-08-12T16:00:01.858Z,1.00
2018-08-12T16:02:27.879Z,1.13
2018-08-12T16:04:53.857Z,1.53
2018-08-12T16:07:19.812Z,1.37
2018-08-12T16:09:46.583Z,1.90
2018-08-12T16:12:12.529Z,2.83
2018-08-12T16:14:38.512Z,2.13
2018-08-12T16:17:04.463Z,4.77
2018-08-12T16:19:30.448Z,3.83
2018-08-12T16:21:56.420Z,3.00
2018-08-12T16:24:22.413Z,5.07
2018-08-12T16:26:48.369Z,2.20
2018-08-12T16:29:14.368Z,4.60
2018-08-12T16:31:40.384Z,4.07
2018-08-12T16:34:06.398Z,2.27
2018-08-12T16:36:32.352Z,4.30
2018-08-12T16:38:58.354Z,2.23
2018-08-12T16:41:24.361Z,4.07
2018-08-12T16:43:50.354Z,2.17
2018-08-12T16:46:16.324Z,2.20
2018-08-12T16:48:42.277Z,1.70
2018-08-12T16:51:08.353Z,1.97
2018-08-12T16:53:34.353Z,3.33
2018-08-12T16:56:00.373Z,3.40
2018-08-12T16:58:26.340Z,2.83
2018-08-12T17:00:52.319Z,7.53
2018-08-12T17:03:18.276Z,6.27
2018-08-12T17:05:44.211Z,6.00
2018-08-12T17:08:10.246Z,2.00
2018-08-12T17:10:36.181Z,3.87
2018-08-12T17:13:02.158Z,3.77
2018-08-12T17:15:28.115Z,4.83
2018-08-12T17:17:54.154Z,2.47
2018-08-12T17:20:20.138Z,2.77
2018-08-12T17:22:46.109Z,3.07
2018-08-12T17:25:12.057Z,2.30
2018-08-12T17:27:38.807Z,2.40
2018-08-12T17:30:05.507Z,2.33
2018-08-12T17:32:31.533Z,2.07
2018-08-12T17:34:57.458Z,2.53
2018-08-12T17:37:23.477Z,1.87
2018-08-12T17:39:49.450Z,2.37
2018-08-12T17:42:15.394Z,2.17
2018-08-12T17:44:41.382Z,2.43
2018-08-12T17:47:07.364Z,3.63
2018-08-12T17:49:33.334Z,3.87
2018-08-12T17:51:59.331Z,2.13
2018-08-12T17:54:25.320Z,1.97
2018-08-12T17:56:51.267Z,2.23
2018-08-12T17:59:17.202Z,2.70
2018-08-12T18:01:43.171Z,1.23
2018-08-12T18:04:09.153Z,1.37
2018-08-12T18:06:35.272Z,1.00
2018-08-12T18:09:02.003Z,1.30
2018-08-12T18:11:27.990Z,2.70
2018-08-12T18:13:53.979Z,2.00
2018-08-12T18:16:19.967Z,1.17
2018-08-12T18:18:45.924Z,1.10
2018-08-12T18:21:12.626Z,2.43
2018-08-12T18:23:38.612Z,2.30
2018-08-12T18:26:04.569Z,1.03
2018-08-12T18:28:30.614Z,2.80
2018-08-12T18:30:56.558Z,1.47
2018-08-12T18:33:23.268Z,1.10
2018-08-12T18:35:49.262Z,1.63
2018-08-12T18:38:15.254Z,1.53
2018-08-12T18:40:41.264Z,2.00
2018-08-12T18:43:08.039Z,1.57
2018-08-12T18:45:33.961Z,4.97
2018-08-12T18:47:59.935Z,4.10
2018-08-12T18:50:25.916Z,4.50
2018-08-12T18:52:51.880Z,2.97
2018-08-12T18:55:17.853Z,3.83
2018-08-12T18:57:43.813Z,5.40
2018-08-12T19:00:09.798Z,3.33
2018-08-12T19:02:35.742Z,2.07
2018-08-12T19:05:01.712Z,4.37
2018-08-12T19:07:27.679Z,3.87
2018-08-12T19:09:53.685Z,1.90
2018-08-12T19:12:19.648Z,2.73
2018-08-12T19:14:45.593Z,2.73
2018-08-12T19:17:12.321Z,7.03
2018-08-12T19:19:38.254Z,2.03
2018-08-12T19:22:04.969Z,3.27
2018-08-12T19:24:30.961Z,2.77
2018-08-12T19:26:57.002Z,4.90
2018-08-12T19:29:22.956Z,3.17
2018-08-12T19:31:49.738Z,3.13
2018-08-12T19:34:15.690Z,3.10
2018-08-12T19:36:41.683Z,3.17
2018-08-12T19:39:07.720Z,4.03
2018-08-12T19:41:33.661Z,2.90
2018-08-12T19:43:59.622Z,4.80
2018-08-12T19:46:26.297Z,3.53
2018-08-12T19:48:52.266Z,3.07
2018-08-12T19:51:18.216Z,3.27
2018-08-12T19:53:44.188Z,4.13
2018-08-12T19:56:10.149Z,2.37
2018-08-12T19:58:36.902Z,3.00
2018-08-12T20:01:02.857Z,2.57
2018-08-12T20:03:28.825Z,2.67
2018-08-12T20:05:55.544Z,3.30
2018-08-12T20:08:21.484Z,3.40
2018-08-12T20:10:47.462Z,2.30
2018-08-12T20:13:13.425Z,3.13
2018-08-12T20:15:39.415Z,3.70
2018-08-12T20:18:05.379Z,2.90
2018-08-12T20:20:32.093Z,3.43
2018-08-12T20:22:58.095Z,2.43
2018-08-12T20:25:24.073Z,2.80
2018-08-12T20:27:50.802Z,2.83
2018-08-12T20:30:16.756Z,2.10
2018-08-12T20:32:42.710Z,1.87
2018-08-12T20:35:08.699Z,2.07
2018-08-12T20:37:34.674Z,2.33
2018-08-12T20:40:00.659Z,1.90
2018-08-12T20:42:26.988Z,2.07
2018-08-12T20:44:53.991Z,1.70
2018-08-12T20:47:20.041Z,1.97
2018-08-12T20:49:46.744Z,3.00
2018-08-12T20:52:12.751Z,2.50
2018-08-12T20:54:38.710Z,2.90
2018-08-12T20:57:04.697Z,4.33
2018-08-12T20:59:30.687Z,3.00
2018-08-12T21:01:56.650Z,4.23
2018-08-12T21:04:22.657Z,2.87
2018-08-12T21:06:48.632Z,2.50
2018-08-12T21:09:15.345Z,2.43
2018-08-12T21:11:41.371Z,2.63
2018-08-12T21:14:07.304Z,2.63
2018-08-12T21:16:33.367Z,2.20
2018-08-12T21:18:59.452Z,2.93
2018-08-12T21:21:25.378Z,3.60
2018-08-12T21:23:52.069Z,3.13
2018-08-12T21:26:18.037Z,2.93
2018-08-12T21:28:44.008Z,2.73
2018-08-12T21:31:10.014Z,2.43
2018-08-12T21:33:36.706Z,2.03
2018-08-12T21:36:02.651Z,2.30
2018-08-12T21:38:29.357Z,4.40
2018-08-12T21:40:55.320Z,3.10
2018-08-12T21:43:22.079Z,2.63
2018-08-12T21:45:51.684Z,2.10
2018-08-12T21:48:18.403Z,2.47
2018-08-12T21:50:45.093Z,2.53
2018-08-12T21:53:11.089Z,2.00
2018-08-12T21:55:37.038Z,2.33
2018-08-12T21:58:03.037Z,3.50
2018-08-12T22:00:28.984Z,1.87
2018-08-12T22:02:55.689Z,1.93
2018-08-12T22:05:21.674Z,2.53
2018-08-12T22:07:47.635Z,2.10
2018-08-12T22:10:14.364Z,1.83
2018-08-12T22:12:41.119Z,1.63
2018-08-12T22:15:07.842Z,1.90
2018-08-12T22:17:34.538Z,1.87
2018-08-12T22:20:00.507Z,2.50
2018-08-12T22:22:27.229Z,1.80
2018-08-12T22:24:53.177Z,1.53
2018-08-12T22:27:19.172Z,4.13
2018-08-12T22:29:45.133Z,1.87
2018-08-12T22:32:11.856Z,2.07
2018-08-12T22:34:38.568Z,2.50
2018-08-12T22:37:04.560Z,1.73
2018-08-12T22:39:30.551Z,1.80
2018-08-12T22:41:56.514Z,2.23
2018-08-12T22:44:22.548Z,2.90
2018-08-12T22:46:48.483Z,2.03
2018-08-12T22:49:14.471Z,2.37
2018-08-12T22:51:40.420Z,1.60
2018-08-12T22:54:06.435Z,1.70
2018-08-12T22:56:32.393Z,4.10
2018-08-12T22:58:58.364Z,1.40
2018-08-12T23:01:24.341Z,1.90
2018-08-12T23:03:50.287Z,1.50
2018-08-12T23:06:16.265Z,2.40
2018-08-12T23:08:42.234Z,1.53
2018-08-12T23:11:08.938Z,1.90
2018-08-12T23:13:34.910Z,1.93
2018-08-12T23:16:00.866Z,1.97
2018-08-12T23:18:26.840Z,1.50
2018-08-12T23:20:53.548Z,1.70
2018-08-12T23:23:19.511Z,3.03
2018-08-12T23:25:45.481Z,3.60
2018-08-12T23:28:11.425Z,2.87
2018-08-12T23:30:37.375Z,1.93
2018-08-12T23:33:03.348Z,1.70
2018-08-12T23:35:29.289Z,2.20
2018-08-12T23:37:55.252Z,2.50
2018-08-12T23:40:21.185Z,2.70
2018-08-12T23:42:47.189Z,2.70
2018-08-12T23:45:13.876Z,1.83
2018-08-12T23:47:39.882Z,2.10
2018-08-12T23:50:05.841Z,1.90
2018-08-12T23:52:31.791Z,4.63
2018-08-12T23:54:58.508Z,2.53
2018-08-12T23:57:24.470Z,2.53
2018-08-12T23:59:50.505Z,2.73
